createdAt,value
2023-08-24T00:01:58.904Z,48.98
2023-08-24T00:04:25.867Z,49.00
2023-08-24T00:06:53.025Z,48.75
2023-08-24T00:09:20.008Z,48.73
2023-08-24T00:11:46.902Z,48.77
2023-08-24T00:14:13.748Z,48.70
2023-08-24T00:16:40.576Z,48.79
2023-08-24T00:19:08.137Z,48.73
2023-08-24T00:21:34.858Z,48.83
2023-08-24T00:24:01.558Z,48.95
2023-08-24T00:26:28.305Z,48.80
2023-08-24T00:28:55.325Z,48.86
2023-08-24T00:31:22.250Z,48.88
2023-08-24T00:33:51.894Z,48.96
2023-08-24T00:36:24.331Z,49.13
2023-08-24T00:38:52.839Z,49.17
2023-08-24T00:41:20.243Z,49.03
2023-08-24T00:43:47.801Z,49.03
2023-08-24T00:46:14.512Z,49.16
2023-08-24T00:48:41.402Z,48.96
2023-08-24T00:51:08.241Z,49.00
2023-08-24T00:53:36.040Z,49.02
2023-08-24T00:56:03.564Z,49.01
2023-08-24T00:58:32.228Z,49.27
2023-08-24T01:00:59.271Z,48.93
2023-08-24T01:03:26.790Z,49.06
2023-08-24T01:05:53.879Z,49.09
2023-08-24T01:08:22.135Z,49.10
2023-08-24T01:11:07.326Z,49.18
2023-08-24T01:14:03.569Z,49.22
2023-08-24T01:16:33.953Z,49.36
2023-08-24T01:19:03.993Z,49.35
2023-08-24T01:21:30.827Z,49.44
2023-08-24T01:24:14.956Z,49.40
2023-08-24T01:26:43.497Z,49.37
2023-08-24T01:29:10.966Z,49.37
2023-08-24T01:31:39.071Z,49.47
2023-08-24T01:34:06.232Z,49.42
2023-08-24T01:36:33.031Z,49.44
2023-08-24T01:39:08.200Z,49.31
2023-08-24T01:41:44.403Z,49.59
2023-08-24T01:44:15.794Z,49.71
2023-08-24T01:46:45.019Z,49.88
2023-08-24T01:49:15.439Z,49.88
2023-08-24T01:51:44.151Z,49.74
2023-08-24T01:54:11.209Z,49.82
2023-08-24T01:56:37.937Z,49.78
2023-08-24T01:59:04.783Z,49.67
2023-08-24T02:01:31.713Z,49.86
2023-08-24T02:03:58.443Z,49.99
2023-08-24T02:06:25.322Z,50.12
2023-08-24T02:08:52.001Z,50.16
2023-08-24T02:11:18.650Z,50.19
2023-08-24T02:13:45.925Z,50.23
2023-08-24T02:16:13.709Z,50.16
2023-08-24T02:18:40.516Z,50.16
2023-08-24T02:21:13.296Z,50.09
2023-08-24T02:23:41.537Z,50.06
2023-08-24T02:26:08.652Z,50.09
2023-08-24T02:28:38.326Z,49.97
2023-08-24T02:31:06.311Z,50.19
2023-08-24T02:33:33.261Z,50.41
2023-08-24T02:36:00.183Z,50.37
2023-08-24T02:38:27.326Z,50.52
2023-08-24T02:41:07.703Z,50.55
2023-08-24T02:43:35.263Z,50.51
2023-08-24T02:46:05.897Z,50.52
2023-08-24T02:48:33.917Z,50.43
2023-08-24T02:51:04.896Z,50.32
2023-08-24T02:53:32.000Z,50.61
2023-08-24T02:55:59.276Z,51.27
2023-08-24T02:58:26.060Z,51.49
2023-08-24T03:00:52.765Z,51.79
2023-08-24T03:03:19.616Z,51.93
2023-08-24T03:06:01.941Z,51.88
2023-08-24T03:08:30.326Z,52.18
2023-08-24T03:10:57.912Z,52.43
2023-08-24T03:13:25.978Z,52.53
2023-08-24T03:15:53.969Z,52.60
2023-08-24T03:18:21.605Z,52.66
2023-08-24T03:20:50.133Z,52.81
2023-08-24T03:23:17.433Z,52.81
2023-08-24T03:25:45.100Z,52.84
2023-08-24T03:28:11.917Z,52.54
2023-08-24T03:30:41.245Z,52.44
2023-08-24T03:33:08.202Z,52.32
2023-08-24T03:35:36.618Z,52.35
2023-08-24T03:38:04.355Z,52.31
2023-08-24T03:40:31.702Z,52.45
2023-08-24T03:42:58.715Z,52.42
2023-08-24T03:45:25.842Z,52.32
2023-08-24T03:47:53.214Z,52.43
2023-08-24T03:50:20.525Z,52.48
2023-08-24T03:52:47.233Z,52.53
2023-08-24T03:55:13.942Z,52.70
2023-08-24T03:57:40.615Z,52.85
2023-08-24T04:00:12.294Z,53.03
2023-08-24T04:02:45.459Z,53.25
2023-08-24T04:05:19.990Z,53.25
2023-08-24T04:07:49.585Z,53.24
2023-08-24T04:10:16.600Z,53.36
2023-08-24T04:12:43.312Z,53.46
2023-08-24T04:15:10.859Z,53.41
2023-08-24T04:17:37.706Z,53.57
2023-08-24T04:20:07.816Z,53.66
2023-08-24T04:22:34.957Z,53.66
2023-08-24T04:25:01.670Z,53.69
2023-08-24T04:27:29.095Z,53.67
2023-08-24T04:29:56.108Z,53.64
2023-08-24T04:32:24.335Z,53.74
2023-08-24T04:34:51.483Z,53.78
2023-08-24T04:37:18.206Z,54.03
2023-08-24T04:39:45.030Z,54.10
2023-08-24T04:42:11.724Z,53.98
2023-08-24T04:44:38.484Z,53.92
2023-08-24T04:47:05.370Z,53.90
2023-08-24T04:49:32.051Z,54.11
2023-08-24T04:51:58.820Z,54.12
2023-08-24T04:54:25.633Z,54.14
2023-08-24T04:56:52.266Z,54.18
2023-08-24T04:59:19.002Z,54.26
2023-08-24T05:01:45.832Z,54.28
2023-08-24T05:04:12.712Z,54.25
2023-08-24T05:06:39.409Z,54.28
2023-08-24T05:09:06.101Z,54.31
2023-08-24T05:11:32.984Z,54.20
2023-08-24T05:13:59.707Z,54.26
2023-08-24T05:16:26.545Z,54.21
2023-08-24T05:18:53.482Z,54.13
2023-08-24T05:21:20.222Z,54.03
2023-08-24T05:23:47.061Z,54.05
2023-08-24T05:26:13.836Z,53.97
2023-08-24T05:28:40.628Z,53.97
2023-08-24T05:31:07.434Z,53.83
2023-08-24T05:33:34.533Z,53.88
2023-08-24T05:36:01.494Z,53.74
2023-08-24T05:38:28.573Z,53.64
2023-08-24T05:40:55.499Z,53.57
2023-08-24T05:43:22.237Z,53.25
2023-08-24T05:45:50.200Z,53.10
2023-08-24T05:48:17.831Z,53.04
2023-08-24T05:50:46.184Z,52.99
2023-08-24T05:53:12.939Z,52.90
2023-08-24T05:55:39.832Z,52.72
2023-08-24T05:58:06.641Z,52.65
2023-08-24T06:00:34.186Z,52.65
2023-08-24T06:03:01.079Z,52.49
2023-08-24T06:05:27.941Z,52.58
2023-08-24T06:07:55.858Z,52.42
2023-08-24T06:10:23.000Z,52.16
2023-08-24T06:12:49.883Z,51.98
2023-08-24T06:15:16.761Z,51.89
2023-08-24T06:17:43.937Z,51.77
2023-08-24T06:20:11.872Z,52.45
2023-08-24T06:22:38.897Z,52.34
2023-08-24T06:25:06.544Z,52.13
2023-08-24T06:27:33.303Z,52.03
2023-08-24T06:29:59.947Z,51.60
2023-08-24T06:32:26.695Z,51.29
2023-08-24T06:34:53.837Z,51.09
2023-08-24T06:37:20.601Z,51.22
2023-08-24T06:39:47.418Z,52.20
2023-08-24T06:42:14.284Z,52.42
2023-08-24T06:44:41.335Z,52.00
2023-08-24T06:47:08.054Z,52.17
2023-08-24T06:49:34.789Z,52.46
2023-08-24T06:52:01.530Z,52.60
2023-08-24T06:54:29.244Z,52.27
2023-08-24T06:56:56.185Z,51.90
2023-08-24T06:59:22.963Z,51.57
2023-08-24T07:01:53.557Z,51.18
2023-08-24T07:04:20.293Z,51.30
2023-08-24T07:06:47.452Z,50.91
2023-08-24T07:09:14.192Z,50.71
2023-08-24T07:11:40.890Z,50.83
2023-08-24T07:14:07.999Z,50.52
2023-08-24T07:16:35.309Z,49.64
2023-08-24T07:19:02.051Z,49.82
2023-08-24T07:21:28.986Z,49.15
2023-08-24T07:23:55.691Z,49.16
2023-08-24T07:26:22.397Z,49.02
2023-08-24T07:28:49.077Z,48.65
2023-08-24T07:31:16.035Z,48.44
2023-08-24T07:33:45.134Z,47.84
2023-08-24T07:36:12.036Z,47.63
2023-08-24T07:38:38.746Z,47.44
2023-08-24T07:41:07.390Z,47.32
2023-08-24T07:43:35.401Z,47.05
2023-08-24T07:46:02.479Z,46.36
2023-08-24T07:48:29.881Z,45.76
2023-08-24T07:50:56.601Z,45.66
2023-08-24T07:53:23.367Z,45.59
2023-08-24T07:55:50.039Z,45.34
2023-08-24T07:58:16.850Z,44.62
2023-08-24T08:00:43.634Z,44.62
2023-08-24T08:03:10.388Z,44.03
2023-08-24T08:05:37.327Z,43.92
2023-08-24T08:08:05.850Z,43.77
2023-08-24T08:10:32.572Z,43.55
2023-08-24T08:12:59.344Z,42.84
2023-08-24T08:15:26.021Z,42.55
2023-08-24T08:17:53.803Z,42.16
2023-08-24T08:20:20.956Z,41.19
2023-08-24T08:22:47.747Z,41.07
2023-08-24T08:25:14.503Z,40.57
2023-08-24T08:27:41.511Z,40.19
2023-08-24T08:30:08.729Z,39.99
2023-08-24T08:32:35.540Z,39.95
2023-08-24T08:35:02.542Z,39.45
2023-08-24T08:37:29.607Z,39.06
2023-08-24T08:39:56.364Z,39.02
2023-08-24T08:42:23.390Z,38.46
2023-08-24T08:44:53.355Z,38.29
2023-08-24T08:47:21.836Z,38.30
2023-08-24T08:49:49.931Z,38.29
2023-08-24T08:52:16.663Z,38.13
2023-08-24T08:54:43.620Z,38.23
2023-08-24T08:57:11.631Z,38.33
2023-08-24T08:59:38.834Z,38.15
2023-08-24T09:02:07.051Z,38.33
2023-08-24T09:04:35.131Z,38.21
2023-08-24T09:07:09.171Z,37.84
2023-08-24T09:09:36.302Z,37.67
2023-08-24T09:12:05.004Z,37.68
2023-08-24T09:14:31.813Z,37.43
2023-08-24T09:16:58.565Z,36.69
2023-08-24T09:19:32.575Z,36.45
2023-08-24T09:22:01.233Z,36.21
2023-08-24T09:24:35.147Z,36.16
2023-08-24T09:27:18.047Z,36.07
2023-08-24T09:29:51.747Z,35.88
2023-08-24T09:32:35.067Z,35.65
2023-08-24T09:35:14.822Z,35.60
2023-08-24T09:37:43.612Z,35.32
2023-08-24T09:40:10.863Z,35.61
2023-08-24T09:42:44.770Z,35.37
2023-08-24T09:45:15.618Z,35.15
2023-08-24T09:47:55.391Z,35.05
2023-08-24T09:50:23.203Z,34.91
2023-08-24T09:52:54.852Z,34.75
2023-08-24T09:55:25.146Z,34.56
2023-08-24T09:57:56.092Z,34.33
2023-08-24T10:00:25.959Z,34.26
2023-08-24T10:02:57.466Z,34.20
2023-08-24T10:07:57.990Z,33.93
2023-08-24T10:10:30.617Z,33.94
2023-08-24T10:13:12.101Z,33.28
2023-08-24T10:15:48.062Z,33.43
2023-08-24T10:18:17.987Z,33.00
2023-08-24T10:20:47.483Z,33.28
2023-08-24T10:23:16.807Z,32.82
2023-08-24T10:25:45.526Z,32.81
2023-08-24T10:28:13.342Z,32.30
2023-08-24T10:30:40.982Z,32.23
2023-08-24T10:33:08.572Z,32.44
2023-08-24T10:35:35.760Z,32.22
2023-08-24T10:38:03.348Z,32.44
2023-08-24T10:40:39.398Z,32.34
2023-08-24T10:43:07.048Z,31.81
2023-08-24T10:45:59.882Z,31.94
2023-08-24T10:48:29.380Z,32.00
2023-08-24T10:51:14.532Z,32.11
2023-08-24T10:53:42.281Z,31.82
2023-08-24T10:56:13.606Z,31.66
2023-08-24T10:58:40.379Z,31.46
2023-08-24T11:01:07.079Z,31.66
2023-08-24T11:03:35.151Z,31.55
2023-08-24T11:06:02.193Z,31.26
2023-08-24T11:08:49.703Z,31.33
2023-08-24T11:11:23.627Z,30.99
2023-08-24T11:14:18.485Z,30.15
2023-08-24T11:16:47.398Z,30.19
2023-08-24T11:19:14.877Z,30.34
2023-08-24T11:21:46.009Z,30.36
2023-08-24T11:24:16.987Z,30.05
2023-08-24T11:26:45.654Z,30.33
2023-08-24T11:29:14.145Z,30.29
2023-08-24T11:31:43.227Z,30.02
2023-08-24T11:34:12.093Z,29.77
2023-08-24T11:36:47.168Z,29.53
2023-08-24T11:39:23.793Z,29.36
2023-08-24T11:42:06.998Z,29.68
2023-08-24T11:44:50.500Z,29.50
2023-08-24T11:47:17.691Z,29.26
2023-08-24T11:49:45.006Z,29.38
2023-08-24T11:52:11.909Z,29.04
2023-08-24T11:54:39.750Z,28.94
2023-08-24T11:57:10.164Z,28.38
2023-08-24T11:59:38.321Z,28.34
2023-08-24T12:02:07.828Z,28.27
2023-08-24T12:04:45.489Z,28.35
2023-08-24T12:07:16.273Z,28.05
2023-08-24T12:09:44.017Z,27.84
2023-08-24T12:12:14.831Z,27.44
2023-08-24T12:14:43.127Z,27.48
2023-08-24T12:17:11.401Z,27.54
2023-08-24T12:19:38.989Z,27.38
2023-08-24T12:22:05.852Z,27.32
2023-08-24T12:24:32.608Z,27.30
2023-08-24T12:27:00.697Z,27.32
2023-08-24T12:29:27.593Z,27.40
2023-08-24T12:31:59.638Z,27.17
2023-08-24T12:34:26.377Z,26.82
2023-08-24T12:36:55.117Z,26.90
2023-08-24T12:39:22.838Z,26.99
2023-08-24T12:41:49.530Z,26.56
2023-08-24T12:44:16.366Z,26.09
2023-08-24T12:46:43.146Z,25.77
2023-08-24T12:49:09.934Z,25.90
2023-08-24T12:51:36.731Z,25.77
2023-08-24T12:54:03.523Z,25.65
2023-08-24T12:56:30.447Z,25.98
2023-08-24T12:58:57.282Z,26.24
2023-08-24T13:01:23.989Z,26.04
2023-08-24T13:03:51.065Z,25.74
2023-08-24T13:08:47.602Z,25.08
2023-08-24T13:11:14.305Z,25.18
2023-08-24T13:13:41.563Z,25.35
2023-08-24T13:16:09.083Z,25.38
2023-08-24T13:18:35.903Z,24.76
2023-08-24T13:21:02.636Z,25.23
2023-08-24T13:23:29.304Z,24.77
2023-08-24T13:25:59.406Z,24.96
2023-08-24T13:28:26.570Z,24.98
2023-08-24T13:30:53.313Z,24.83
2023-08-24T13:33:20.999Z,24.58
2023-08-24T13:35:48.139Z,24.62
2023-08-24T13:38:15.165Z,24.51
2023-08-24T13:40:41.971Z,24.82
2023-08-24T13:43:08.715Z,24.47
2023-08-24T13:45:36.083Z,24.63
2023-08-24T13:48:03.731Z,24.62
2023-08-24T13:50:30.478Z,24.70
2023-08-24T13:52:57.308Z,24.82
2023-08-24T13:55:24.114Z,25.28
2023-08-24T13:57:51.255Z,25.19
2023-08-24T14:00:18.682Z,25.30
2023-08-24T14:02:46.232Z,25.34
2023-08-24T14:05:14.527Z,25.77
2023-08-24T14:07:42.393Z,26.02
2023-08-24T14:10:09.521Z,26.02
2023-08-24T14:12:36.286Z,25.82
2023-08-24T14:15:03.254Z,26.03
2023-08-24T14:17:30.036Z,25.91
2023-08-24T14:19:57.231Z,25.73
2023-08-24T14:22:23.935Z,25.71
2023-08-24T14:24:50.697Z,25.83
2023-08-24T14:27:17.514Z,25.97
2023-08-24T14:29:44.247Z,26.00
2023-08-24T14:32:10.913Z,26.34
2023-08-24T14:34:37.603Z,26.38
2023-08-24T14:37:04.438Z,26.30
2023-08-24T14:39:31.504Z,26.41
2023-08-24T14:41:58.249Z,26.50
2023-08-24T14:44:24.931Z,26.34
2023-08-24T14:46:51.873Z,26.92
2023-08-24T14:49:19.977Z,26.89
2023-08-24T14:51:48.282Z,26.93
2023-08-24T14:54:16.196Z,26.92
2023-08-24T14:56:43.188Z,27.40
2023-08-24T14:59:09.959Z,27.10
2023-08-24T15:01:36.843Z,27.08
2023-08-24T15:04:04.860Z,27.11
2023-08-24T15:06:31.642Z,27.17
2023-08-24T15:08:59.418Z,27.30
2023-08-24T15:11:26.203Z,27.36
2023-08-24T15:13:54.151Z,27.55
2023-08-24T15:16:20.969Z,27.48
2023-08-24T15:18:47.737Z,27.71
2023-08-24T15:21:16.249Z,27.86
2023-08-24T15:23:43.554Z,27.74
2023-08-24T15:26:10.238Z,27.84
2023-08-24T15:28:39.088Z,27.91
2023-08-24T15:31:06.240Z,27.68
2023-08-24T15:33:33.791Z,27.53
2023-08-24T15:36:00.647Z,27.21
2023-08-24T15:38:27.364Z,27.06
2023-08-24T15:40:57.641Z,27.05
2023-08-24T15:43:24.402Z,27.15
2023-08-24T15:45:54.261Z,27.40
2023-08-24T15:48:20.972Z,27.76
2023-08-24T15:50:47.661Z,28.00
2023-08-24T15:53:14.521Z,28.02
2023-08-24T15:55:41.357Z,28.20
2023-08-24T15:58:08.599Z,27.85
2023-08-24T16:00:35.384Z,28.27
2023-08-24T16:03:02.132Z,28.13
2023-08-24T16:05:28.956Z,28.26
2023-08-24T16:07:55.901Z,28.16
2023-08-24T16:10:22.993Z,28.47
2023-08-24T16:12:50.307Z,28.60
2023-08-24T16:15:17.619Z,28.29
2023-08-24T16:17:44.898Z,28.19
2023-08-24T16:20:12.815Z,28.42
2023-08-24T16:22:40.368Z,28.29
2023-08-24T16:25:07.999Z,28.58
2023-08-24T16:27:35.666Z,28.80
2023-08-24T16:30:04.512Z,28.71
2023-08-24T16:32:31.908Z,28.92
2023-08-24T16:34:58.790Z,28.82
2023-08-24T16:37:25.627Z,28.90
2023-08-24T16:39:52.401Z,28.64
2023-08-24T16:42:19.444Z,29.16
2023-08-24T16:44:48.247Z,29.40
2023-08-24T16:47:15.615Z,29.58
2023-08-24T16:49:42.535Z,29.96
2023-08-24T16:52:09.305Z,29.99
2023-08-24T16:54:36.108Z,30.03
2023-08-24T16:57:02.915Z,30.33
2023-08-24T16:59:31.083Z,30.38
2023-08-24T17:01:58.673Z,30.29
2023-08-24T17:04:25.762Z,30.49
2023-08-24T17:06:52.879Z,30.65
2023-08-24T17:09:19.838Z,30.86
2023-08-24T17:11:46.664Z,30.87
2023-08-24T17:14:14.121Z,31.05
2023-08-24T17:16:41.306Z,31.54
2023-08-24T17:19:08.423Z,31.94
2023-08-24T17:21:35.577Z,32.22
2023-08-24T17:24:04.466Z,32.55
2023-08-24T17:26:32.943Z,32.73
2023-08-24T17:28:59.630Z,32.98
2023-08-24T17:31:26.322Z,33.31
2023-08-24T17:33:53.110Z,33.47
2023-08-24T17:36:19.793Z,33.59
2023-08-24T17:38:47.745Z,33.98
2023-08-24T17:41:18.238Z,34.10
2023-08-24T17:43:45.059Z,35.00
2023-08-24T17:46:12.320Z,35.52
2023-08-24T17:48:39.014Z,36.47
2023-08-24T17:51:08.716Z,36.76
2023-08-24T17:53:36.013Z,37.21
2023-08-24T17:56:03.534Z,37.40
2023-08-24T17:58:30.515Z,37.44
2023-08-24T18:00:57.915Z,37.19
2023-08-24T18:03:25.001Z,37.37
2023-08-24T18:05:58.672Z,37.31
2023-08-24T18:08:27.529Z,37.32
2023-08-24T18:11:05.755Z,37.32
2023-08-24T18:13:34.507Z,37.22
2023-08-24T18:16:02.639Z,37.58
2023-08-24T18:18:29.524Z,37.83
2023-08-24T18:20:56.200Z,37.89
2023-08-24T18:23:24.078Z,38.25
2023-08-24T18:25:50.863Z,38.05
2023-08-24T18:28:17.637Z,38.07
2023-08-24T18:30:44.564Z,38.32
2023-08-24T18:33:11.425Z,38.51
2023-08-24T18:35:38.465Z,38.24
2023-08-24T18:38:06.474Z,38.23
2023-08-24T18:40:33.336Z,38.49
2023-08-24T18:43:00.350Z,38.31
2023-08-24T18:45:28.426Z,38.43
2023-08-24T18:47:55.498Z,38.59
2023-08-24T18:50:22.505Z,38.56
2023-08-24T18:52:49.166Z,38.50
2023-08-24T18:55:15.929Z,38.62
2023-08-24T18:57:42.807Z,38.69
2023-08-24T19:00:10.380Z,38.78
2023-08-24T19:02:37.130Z,38.85
2023-08-24T19:05:04.469Z,38.83
2023-08-24T19:07:31.231Z,38.79
2023-08-24T19:09:58.365Z,38.95
2023-08-24T19:12:25.082Z,39.04
2023-08-24T19:14:52.004Z,39.36
2023-08-24T19:17:18.725Z,39.27
2023-08-24T19:19:45.585Z,39.28
2023-08-24T19:22:12.433Z,39.43
2023-08-24T19:24:39.193Z,39.45
2023-08-24T19:27:06.296Z,39.51
2023-08-24T19:29:33.090Z,39.58
2023-08-24T19:32:00.002Z,39.80
2023-08-24T19:34:27.747Z,39.71
2023-08-24T19:36:54.522Z,39.88
2023-08-24T19:39:22.527Z,39.80
2023-08-24T19:41:59.583Z,39.66
2023-08-24T19:44:27.583Z,39.43
2023-08-24T19:46:54.379Z,39.29
2023-08-24T19:49:21.199Z,39.43
2023-08-24T19:51:47.987Z,39.73
2023-08-24T19:54:14.769Z,39.65
2023-08-24T19:56:43.682Z,39.72
2023-08-24T19:59:10.525Z,39.76
2023-08-24T20:01:37.365Z,39.84
2023-08-24T20:04:05.247Z,40.28
2023-08-24T20:06:32.255Z,40.34
2023-08-24T20:08:58.970Z,40.49
2023-08-24T20:11:31.388Z,40.63
2023-08-24T20:14:00.669Z,40.79
2023-08-24T20:16:27.661Z,40.85
2023-08-24T20:18:54.918Z,40.91
2023-08-24T20:21:22.955Z,40.98
2023-08-24T20:23:49.721Z,41.16
2023-08-24T20:26:17.891Z,41.21
2023-08-24T20:28:44.674Z,41.46
2023-08-24T20:31:11.856Z,41.55
2023-08-24T20:33:38.988Z,41.52
2023-08-24T20:36:06.094Z,41.69
2023-08-24T20:38:32.813Z,41.83
2023-08-24T20:41:04.101Z,41.84
2023-08-24T20:43:31.801Z,41.90
2023-08-24T20:45:58.690Z,41.81
2023-08-24T20:48:25.716Z,42.15
2023-08-24T20:50:58.087Z,42.06
2023-08-24T20:53:24.946Z,42.30
2023-08-24T20:55:52.369Z,42.45
2023-08-24T20:58:20.173Z,42.54
2023-08-24T21:00:47.116Z,42.32
2023-08-24T21:03:14.287Z,42.49
2023-08-24T21:05:41.271Z,42.71
2023-08-24T21:08:08.006Z,42.69
2023-08-24T21:10:34.752Z,42.98
2023-08-24T21:13:03.035Z,43.25
2023-08-24T21:15:31.286Z,43.34
2023-08-24T21:17:58.199Z,43.47
2023-08-24T21:20:25.080Z,43.76
2023-08-24T21:22:51.826Z,43.69
2023-08-24T21:25:18.627Z,43.60
2023-08-24T21:27:45.549Z,43.68
2023-08-24T21:30:12.845Z,43.85
2023-08-24T21:32:39.668Z,43.86
2023-08-24T21:35:06.982Z,43.99
2023-08-24T21:37:33.710Z,44.15
2023-08-24T21:40:01.471Z,44.29
2023-08-24T21:42:28.331Z,44.40
2023-08-24T21:44:55.191Z,44.33
2023-08-24T21:47:21.874Z,44.55
2023-08-24T21:49:50.406Z,44.75
2023-08-24T21:52:18.619Z,44.74
2023-08-24T21:54:46.116Z,44.94
2023-08-24T21:57:13.012Z,44.97
2023-08-24T21:59:39.664Z,45.02
2023-08-24T22:02:06.887Z,45.25
2023-08-24T22:04:33.718Z,45.42
2023-08-24T22:07:00.993Z,45.69
2023-08-24T22:09:27.679Z,45.62
2023-08-24T22:11:54.422Z,45.81
2023-08-24T22:14:21.450Z,45.93
2023-08-24T22:16:48.153Z,46.04
2023-08-24T22:19:26.055Z,46.20
2023-08-24T22:21:54.143Z,45.87
2023-08-24T22:24:20.969Z,45.90
2023-08-24T22:26:47.837Z,45.93
2023-08-24T22:29:14.571Z,45.98
2023-08-24T22:31:41.391Z,45.98
2023-08-24T22:34:08.102Z,46.22
2023-08-24T22:36:34.952Z,46.28
2023-08-24T22:39:01.836Z,46.22
2023-08-24T22:41:28.686Z,46.47
2023-08-24T22:43:55.500Z,46.37
2023-08-24T22:46:22.263Z,46.46
2023-08-24T22:48:48.983Z,46.57
2023-08-24T22:51:15.732Z,46.69
2023-08-24T22:53:42.530Z,46.65
2023-08-24T22:56:09.251Z,46.73
2023-08-24T22:58:36.021Z,46.85
2023-08-24T23:01:14.758Z,46.74
2023-08-24T23:03:41.466Z,46.83
2023-08-24T23:06:13.278Z,46.73
2023-08-24T23:08:40.112Z,46.87
2023-08-24T23:11:06.857Z,46.79
2023-08-24T23:13:34.751Z,46.79
2023-08-24T23:16:02.428Z,47.10
2023-08-24T23:18:29.190Z,47.18
2023-08-24T23:20:55.909Z,47.44
2023-08-24T23:23:22.687Z,47.35
2023-08-24T23:25:49.492Z,47.58
2023-08-24T23:28:18.177Z,47.64
2023-08-24T23:30:46.408Z,47.66
2023-08-24T23:33:16.805Z,47.78
2023-08-24T23:35:46.282Z,47.94
2023-08-24T23:38:13.145Z,48.15
2023-08-24T23:40:39.975Z,48.19
2023-08-24T23:43:06.884Z,48.11
2023-08-24T23:45:33.741Z,48.15
2023-08-24T23:48:00.525Z,48.28
2023-08-24T23:50:28.285Z,48.15
2023-08-24T23:52:54.951Z,48.04
2023-08-24T23:55:21.665Z,48.17
2023-08-24T23:57:48.358Z,48.09
